Time;durP1;ratioP1;P1;durP2;ratioP2;P2;SDS_P1;SDS_P2;PMS_P1;PMS_P2;Temp;Humidity;BMP_temperature;BMP_pressure;BME280_temperature;BME280_humidity;BME280_pressure;Samples;Min_cycle;Max_cycle;Signal;HPM_P1;HPM_P2
2022/01/02 00:03:18;;;;;;;4.35;2.38;;;11.10;99.90;;;;;;12385512;28;20128;-86
2022/01/02 00:09:33;;;;;;;3.95;2.20;;;11.10;99.90;;;;;;12396251;28;20487;-87
2022/01/02 00:15:37;;;;;;;5.45;2.42;;;11.10;99.90;;;;;;12373796;28;20125;-86
2022/01/02 00:21:44;;;;;;;4.72;2.25;;;11.20;99.90;;;;;;12376167;28;20429;-86
2022/01/02 00:27:46;;;;;;;5.47;2.53;;;11.10;99.90;;;;;;12392546;28;20144;-85
2022/01/02 00:33:49;;;;;;;4.70;2.03;;;11.10;99.90;;;;;;12376189;28;20418;-87
2022/01/02 00:39:51;;;;;;;3.90;2.00;;;11.10;99.90;;;;;;12391485;28;20050;-86
2022/01/02 00:45:54;;;;;;;4.82;2.30;;;11.10;99.90;;;;;;12375303;28;20058;-86
2022/01/02 00:52:03;;;;;;;6.03;2.33;;;11.10;99.90;;;;;;12384134;28;20057;-85
2022/01/02 00:58:16;;;;;;;4.85;1.98;;;11.10;99.90;;;;;;12374010;28;20457;-86
2022/01/02 01:04:21;;;;;;;3.47;2.05;;;11.00;99.90;;;;;;12388628;28;20156;-87
2022/01/02 01:10:25;;;;;;;4.88;2.03;;;11.10;99.90;;;;;;12387049;28;20129;-87
2022/01/02 01:16:28;;;;;;;4.68;2.08;;;11.30;99.90;;;;;;12385696;28;20119;-86
2022/01/02 01:22:30;;;;;;;5.22;1.98;;;11.30;99.90;;;;;;12392313;28;20054;-87
2022/01/02 01:28:32;;;;;;;3.97;1.95;;;11.40;99.90;;;;;;12374442;28;20431;-86
2022/01/02 01:34:35;;;;;;;3.40;1.73;;;11.50;99.90;;;;;;12411440;28;20093;-85
2022/01/02 01:40:51;;;;;;;5.35;2.13;;;11.40;99.90;;;;;;12423115;28;20613;-87
2022/01/02 01:46:55;;;;;;;6.03;1.98;;;11.40;99.90;;;;;;12391281;28;20388;-86
2022/01/02 01:52:58;;;;;;;4.40;1.98;;;11.40;99.90;;;;;;12383552;28;20054;-85
2022/01/02 01:59:05;;;;;;;4.55;1.98;;;11.40;99.90;;;;;;12381794;28;20057;-86
2022/01/02 02:05:08;;;;;;;5.85;2.33;;;11.50;99.90;;;;;;12366117;28;20053;-86
2022/01/02 02:11:10;;;;;;;4.60;2.20;;;11.50;99.90;;;;;;12377026;28;20078;-86
2022/01/02 02:17:12;;;;;;;5.45;2.40;;;11.50;99.90;;;;;;12386153;28;20084;-87
2022/01/02 02:23:14;;;;;;;6.95;2.25;;;11.40;99.90;;;;;;12397162;28;20132;-87
2022/01/02 02:29:16;;;;;;;4.70;2.22;;;11.30;99.90;;;;;;12394669;28;20053;-87
2022/01/02 02:35:19;;;;;;;4.28;2.33;;;11.30;99.90;;;;;;12390672;28;20054;-87
2022/01/02 02:41:20;;;;;;;4.20;2.13;;;11.30;99.90;;;;;;12387656;28;20137;-86
2022/01/02 02:53:45;;;;;;;4.95;2.00;;;11.40;99.90;;;;;;12394719;28;20107;-87
2022/01/02 02:59:48;;;;;;;3.25;1.92;;;11.40;99.90;;;;;;12390138;28;20458;-86
2022/01/02 03:05:50;;;;;;;4.97;2.00;;;11.40;99.90;;;;;;12383747;28;20129;-85
2022/01/02 03:11:52;;;;;;;4.00;2.22;;;11.30;99.90;;;;;;12376829;28;20582;-86
2022/01/02 03:17:54;;;;;;;4.13;2.17;;;11.20;99.90;;;;;;12388178;28;20046;-86
2022/01/02 03:23:57;;;;;;;5.95;2.60;;;11.10;99.90;;;;;;12408612;28;20038;-86
2022/01/02 03:29:59;;;;;;;4.65;2.33;;;11.00;99.90;;;;;;12386642;28;20466;-86
2022/01/02 03:36:03;;;;;;;4.72;2.20;;;11.10;99.90;;;;;;12340101;28;20050;-85
2022/01/02 03:42:10;;;;;;;7.07;2.65;;;11.00;99.90;;;;;;12339389;28;20758;-86
2022/01/02 03:48:12;;;;;;;6.75;2.25;;;10.90;99.90;;;;;;12382477;28;21073;-86
2022/01/02 03:54:14;;;;;;;8.82;2.97;;;10.80;99.90;;;;;;12336662;28;20078;-85
2022/01/02 04:00:16;;;;;;;6.63;2.47;;;10.80;99.90;;;;;;12322061;28;20125;-86
2022/01/02 04:06:18;;;;;;;5.93;2.75;;;10.80;99.90;;;;;;12324044;28;20050;-87
2022/01/02 04:12:20;;;;;;;7.28;3.15;;;10.80;99.90;;;;;;12324383;28;20050;-86
2022/01/02 04:18:22;;;;;;;6.78;2.90;;;10.90;99.90;;;;;;12334303;28;20162;-86
2022/01/02 04:24:24;;;;;;;6.95;3.20;;;10.80;99.90;;;;;;12332019;28;20050;-85
2022/01/02 04:30:26;;;;;;;7.25;3.20;;;10.80;99.90;;;;;;12336181;28;20050;-86
2022/01/02 04:36:28;;;;;;;6.03;3.00;;;10.70;99.90;;;;;;12344439;28;20047;-86
2022/01/02 04:42:30;;;;;;;4.32;2.70;;;10.60;99.90;;;;;;12350183;28;20088;-86
2022/01/02 04:48:32;;;;;;;8.25;3.20;;;10.50;99.90;;;;;;12428002;28;20136;-86
2022/01/02 04:54:36;;;;;;;7.18;2.88;;;10.50;99.90;;;;;;12428062;28;20073;-85
2022/01/02 05:00:38;;;;;;;7.57;3.60;;;10.50;99.90;;;;;;12421095;28;20073;-86
2022/01/02 05:06:41;;;;;;;9.27;3.20;;;10.60;99.90;;;;;;12428457;28;20060;-88
2022/01/02 05:12:43;;;;;;;7.25;3.22;;;10.50;99.90;;;;;;12423206;28;20532;-87
2022/01/02 05:18:45;;;;;;;7.10;3.17;;;10.60;99.90;;;;;;12425585;28;20073;-85
2022/01/02 05:24:47;;;;;;;8.82;3.53;;;10.60;99.90;;;;;;12418351;28;20533;-87
2022/01/02 05:30:49;;;;;;;11.20;3.45;;;10.70;99.90;;;;;;12431335;28;20078;-86
2022/01/02 05:36:51;;;;;;;9.88;3.63;;;10.70;99.90;;;;;;12423114;28;20042;-87
2022/01/02 05:42:53;;;;;;;10.55;3.67;;;10.60;99.90;;;;;;12426069;28;20068;-86
2022/01/02 05:48:55;;;;;;;9.18;3.50;;;10.60;99.90;;;;;;12445339;28;20117;-86
2022/01/02 05:54:58;;;;;;;8.00;3.70;;;10.60;99.90;;;;;;12419371;28;20164;-88
2022/01/02 06:01:00;;;;;;;11.23;3.58;;;10.60;99.90;;;;;;12441400;28;20606;-85
2022/01/02 06:07:04;;;;;;;9.48;3.20;;;10.70;99.90;;;;;;12434909;28;20147;-86
2022/01/02 06:13:06;;;;;;;8.57;3.33;;;10.70;99.90;;;;;;12435161;28;20042;-86
2022/01/02 06:19:09;;;;;;;9.90;3.40;;;10.70;99.90;;;;;;12450115;28;20080;-84
2022/01/02 06:25:12;;;;;;;10.43;2.80;;;10.70;99.90;;;;;;12432658;28;20048;-85
2022/01/02 06:31:14;;;;;;;10.50;3.20;;;10.80;99.90;;;;;;12429341;28;21058;-84
2022/01/02 06:37:22;;;;;;;13.05;3.08;;;10.90;99.90;;;;;;12433607;28;20109;-86
2022/01/02 06:43:24;;;;;;;9.13;2.72;;;10.90;99.90;;;;;;12420958;28;20497;-85
2022/01/02 06:49:27;;;;;;;8.57;3.00;;;11.00;99.90;;;;;;12441032;28;20072;-86
2022/01/02 06:55:29;;;;;;;11.95;3.85;;;11.10;99.90;;;;;;12432284;28;20148;-86
2022/01/02 07:01:31;;;;;;;11.65;3.20;;;11.10;99.90;;;;;;12440776;28;20045;-84
2022/01/02 07:07:42;;;;;;;10.75;2.90;;;11.20;99.90;;;;;;12419984;28;20071;-86
2022/01/02 07:13:44;;;;;;;11.82;3.20;;;11.30;99.90;;;;;;12424435;28;20132;-86
2022/01/02 07:19:46;;;;;;;8.25;2.75;;;11.30;99.90;;;;;;12433885;28;20145;-86
2022/01/02 07:25:49;;;;;;;10.23;3.22;;;11.20;99.90;;;;;;12439253;28;20053;-85
2022/01/02 07:31:51;;;;;;;12.48;3.00;;;11.20;99.90;;;;;;12427864;28;20545;-86
2022/01/02 07:37:54;;;;;;;9.27;3.22;;;11.30;99.90;;;;;;12452399;28;20057;-86
2022/01/02 07:43:58;;;;;;;10.13;3.75;;;11.20;99.90;;;;;;12427657;28;20069;-86
2022/01/02 07:50:00;;;;;;;;;;;11.20;99.90;;;;;;12430601;28;20050;-85
2022/01/02 07:56:02;;;;;;;10.35;3.08;;;11.20;99.90;;;;;;12444864;28;19929;-87
2022/01/02 08:02:06;;;;;;;11.25;3.72;;;11.20;99.90;;;;;;12437422;28;20140;-87
2022/01/02 08:08:09;;;;;;;15.15;3.72;;;11.10;99.90;;;;;;12419807;28;20132;-87
2022/01/02 08:14:12;;;;;;;11.15;3.30;;;11.10;99.90;;;;;;12435216;28;20409;-86
2022/01/02 08:20:14;;;;;;;13.27;3.53;;;11.00;99.90;;;;;;12423710;28;20056;-86
2022/01/02 08:26:16;;;;;;;17.02;4.05;;;10.90;99.90;;;;;;12432449;28;20619;-86
2022/01/02 08:32:18;;;;;;;12.35;3.90;;;10.90;99.90;;;;;;12424466;28;20046;-86
2022/01/02 08:38:23;;;;;;;13.25;3.90;;;11.00;99.90;;;;;;12419320;28;20129;-85
2022/01/02 08:44:25;;;;;;;11.88;4.10;;;10.90;99.90;;;;;;12423367;28;20056;-86
2022/01/02 08:50:27;;;;;;;11.95;4.22;;;11.00;99.90;;;;;;12453892;23;20129;-39
2022/01/02 08:56:29;;;;;;;8.65;3.30;;;11.00;99.90;;;;;;12506347;28;20060;-37
2022/01/02 09:02:30;;;;;;;10.88;3.80;;;11.10;99.90;;;;;;12508163;28;20456;-38
2022/01/02 09:08:32;;;;;;;8.65;3.15;;;11.10;99.90;;;;;;12507122;28;20049;-38
2022/01/02 09:14:35;;;;;;;10.30;2.90;;;11.20;99.90;;;;;;12487834;28;20121;-39
2022/01/02 09:20:37;;;;;;;7.57;3.10;;;11.30;99.90;;;;;;12511619;28;20124;-38
2022/01/02 09:26:39;;;;;;;12.18;2.72;;;11.40;99.90;;;;;;12515784;28;20489;-37
2022/01/02 09:32:41;;;;;;;8.90;2.47;;;11.60;99.90;;;;;;12516912;28;20049;-39
2022/01/02 09:38:43;;;;;;;9.52;2.45;;;11.70;99.90;;;;;;12511614;28;20087;-39
2022/01/02 09:44:45;;;;;;;13.70;2.80;;;11.80;99.90;;;;;;12500260;28;20056;-37
2022/01/02 09:50:47;;;;;;;12.48;2.97;;;11.80;99.90;;;;;;12485091;28;20053;-37
2022/01/02 09:56:49;;;;;;;10.75;2.72;;;11.80;99.90;;;;;;12483115;28;20038;-39
2022/01/02 10:02:57;;;;;;;13.90;2.40;;;12.00;99.90;;;;;;12460084;28;20053;-37
2022/01/02 10:09:00;;;;;;;9.63;2.50;;;11.90;99.90;;;;;;12478252;28;20136;-37
2022/01/02 10:15:06;;;;;;;10.57;2.20;;;12.00;99.90;;;;;;12475948;28;20140;-37
2022/01/02 10:21:10;;;;;;;9.32;2.70;;;12.10;99.90;;;;;;12480029;28;20045;-39
2022/01/02 10:27:14;;;;;;;;;;;12.30;99.90;;;;;;12483398;28;20064;-37
2022/01/02 10:33:16;;;;;;;8.77;2.05;;;12.60;99.90;;;;;;12474151;28;19929;-40
2022/01/02 10:39:19;;;;;;;7.97;1.50;;;12.80;99.90;;;;;;12479568;28;20153;-37
2022/01/02 10:45:48;;;;;;;7.88;1.98;;;13.00;99.90;;;;;;12482673;28;20045;-37
2022/01/02 10:51:50;;;;;;;6.03;2.00;;;12.90;99.90;;;;;;12483558;28;20433;-39
2022/01/02 10:57:54;;;;;;;9.95;2.60;;;12.90;99.90;;;;;;12485111;28;20486;-38
2022/01/02 11:03:59;;;;;;;9.65;2.20;;;12.90;99.90;;;;;;12479999;28;20049;-39
2022/01/02 11:10:02;;;;;;;9.20;1.77;;;12.90;99.90;;;;;;12478285;28;20141;-40
2022/01/02 11:16:06;;;;;;;6.10;1.83;;;12.70;99.90;;;;;;12478369;28;20052;-39
2022/01/02 11:22:17;;;;;;;7.15;2.20;;;12.80;99.90;;;;;;12479386;28;20056;-38
2022/01/02 11:28:26;;;;;;;8.02;2.03;;;12.80;99.90;;;;;;12471433;28;20512;-38
2022/01/02 11:34:32;;;;;;;6.63;2.22;;;12.40;99.90;;;;;;12478937;28;20481;-37
2022/01/02 11:40:48;;;;;;;7.82;2.10;;;11.90;99.90;;;;;;12476988;28;20405;-38
2022/01/02 11:46:56;;;;;;;9.63;2.70;;;11.90;99.90;;;;;;12477408;28;20490;-39
2022/01/02 11:53:14;;;;;;;5.13;2.25;;;11.80;99.90;;;;;;12462679;28;20057;-38
2022/01/02 11:59:40;;;;;;;9.68;2.15;;;11.80;99.90;;;;;;12462014;28;20539;-38
2022/01/02 12:06:21;;;;;;;5.75;2.05;;;11.80;99.90;;;;;;12464883;28;20148;-39
2022/01/02 12:12:23;;;;;;;5.57;2.22;;;11.80;99.90;;;;;;12462208;28;20049;-38
2022/01/02 12:18:28;;;;;;;7.45;2.05;;;11.90;99.90;;;;;;12460965;28;20056;-38
2022/01/02 12:24:30;;;;;;;;;;;12.00;99.90;;;;;;12464116;28;20102;-42
2022/01/02 12:30:37;;;;;;;5.03;2.30;;;11.90;99.90;;;;;;12461414;28;20374;-39
2022/01/02 12:36:42;;;;;;;4.45;2.15;;;12.10;99.90;;;;;;12463997;28;20144;-38
2022/01/02 12:42:47;;;;;;;9.48;2.88;;;12.20;99.90;;;;;;12461404;28;20111;-39
2022/01/02 12:48:49;;;;;;;8.70;2.77;;;12.30;99.90;;;;;;12462969;28;20604;-37
2022/01/02 12:54:51;;;;;;;8.30;2.70;;;12.20;99.90;;;;;;12457952;28;20588;-40
2022/01/02 13:00:53;;;;;;;8.27;2.78;;;12.20;99.90;;;;;;12460696;28;20050;-38
2022/01/02 13:07:12;;;;;;;5.65;2.67;;;12.20;99.90;;;;;;12461799;28;20054;-37
2022/01/02 13:13:34;;;;;;;7.43;2.60;;;12.20;99.90;;;;;;12460271;28;20123;-39
2022/01/02 13:19:40;;;;;;;6.78;2.83;;;12.20;99.90;;;;;;12460925;28;20042;-40
2022/01/02 13:25:45;;;;;;;5.78;2.60;;;12.20;99.90;;;;;;12458359;28;20425;-40
2022/01/02 13:31:52;;;;;;;6.15;2.70;;;12.20;99.90;;;;;;12458392;28;20054;-38
2022/01/02 13:38:06;;;;;;;13.30;2.72;;;12.20;99.90;;;;;;12462266;28;20053;-40
2022/01/02 13:44:15;;;;;;;;;;;12.10;99.90;;;;;;12434841;28;20061;-38
2022/01/02 13:50:41;;;;;;;5.75;3.00;;;12.10;99.90;;;;;;12457972;28;19925;-37
2022/01/02 13:56:57;;;;;;;8.48;2.90;;;12.00;99.90;;;;;;12460421;28;20421;-38
2022/01/02 14:02:59;;;;;;;7.03;3.25;;;11.90;99.90;;;;;;12464321;28;20132;-39
2022/01/02 14:09:07;;;;;;;9.07;3.30;;;11.90;99.90;;;;;;12464254;28;20053;-40
2022/01/02 14:15:26;;;;;;;11.65;3.30;;;11.90;99.90;;;;;;12470121;28;20045;-37
2022/01/02 14:21:29;;;;;;;8.80;3.17;;;11.90;99.90;;;;;;12469482;28;20053;-37
2022/01/02 14:27:31;;;;;;;7.82;2.53;;;11.90;99.90;;;;;;12464245;28;20095;-39
2022/01/02 14:33:34;;;;;;;6.93;2.50;;;12.00;99.90;;;;;;12467417;28;20050;-39
2022/01/02 14:39:36;;;;;;;6.68;2.58;;;12.00;99.90;;;;;;12468666;28;20425;-38
2022/01/02 14:45:38;;;;;;;8.55;2.40;;;12.00;99.90;;;;;;12475347;28;20049;-39
2022/01/02 14:51:41;;;;;;;6.65;2.05;;;12.10;99.90;;;;;;12480465;28;20244;-40
2022/01/02 14:57:45;;;;;;;7.18;2.70;;;12.00;99.90;;;;;;12481697;28;20075;-39
2022/01/02 15:03:47;;;;;;;6.60;2.20;;;12.00;99.90;;;;;;12475113;28;20094;-41
2022/01/02 15:09:50;;;;;;;8.95;2.50;;;12.00;99.90;;;;;;12480624;28;20053;-39
2022/01/02 15:15:52;;;;;;;12.88;2.95;;;12.00;99.90;;;;;;12480222;28;20049;-37
2022/01/02 15:21:55;;;;;;;7.22;2.13;;;12.10;99.90;;;;;;12476940;28;20135;-38
2022/01/02 15:28:00;;;;;;;;;;;12.10;99.90;;;;;;12448033;28;20057;-38
2022/01/02 15:34:03;;;;;;;6.30;2.33;;;11.90;99.90;;;;;;12478367;28;19925;-38
2022/01/02 15:40:06;;;;;;;7.90;2.13;;;12.00;99.90;;;;;;12475767;28;20049;-39
2022/01/02 15:46:07;;;;;;;6.10;2.22;;;11.90;99.90;;;;;;12478566;28;20045;-39
2022/01/02 15:52:12;;;;;;;8.52;2.40;;;11.90;99.90;;;;;;12476344;28;20045;-38
2022/01/02 15:58:19;;;;;;;5.97;2.38;;;11.90;99.90;;;;;;12473510;28;20478;-39
2022/01/02 16:04:22;;;;;;;9.27;2.60;;;11.80;99.90;;;;;;12475196;28;20762;-39
2022/01/02 16:10:24;;;;;;;8.43;2.78;;;11.70;99.90;;;;;;12474315;28;20052;-39
2022/01/02 16:16:26;;;;;;;5.32;2.30;;;11.60;99.90;;;;;;12475415;28;20061;-40
2022/01/02 16:22:29;;;;;;;9.30;3.03;;;11.80;99.90;;;;;;12470220;28;20126;-38
2022/01/02 16:28:31;;;;;;;7.65;3.00;;;11.70;99.90;;;;;;12472237;28;20483;-38
2022/01/02 16:34:34;;;;;;;9.02;2.40;;;11.80;99.90;;;;;;12454675;28;20763;-38
2022/01/02 16:40:36;;;;;;;8.15;2.40;;;11.80;99.90;;;;;;12472793;28;20118;-42
2022/01/02 16:46:38;;;;;;;5.25;2.15;;;11.60;99.90;;;;;;12473214;28;20416;-39
2022/01/02 16:52:41;;;;;;;7.05;2.78;;;11.60;99.90;;;;;;12472723;28;20092;-40
2022/01/02 16:58:45;;;;;;;6.80;2.72;;;11.40;99.90;;;;;;12473181;28;20060;-39
2022/01/02 17:04:48;;;;;;;6.57;2.40;;;11.40;99.90;;;;;;12474349;28;20985;-40
2022/01/02 17:10:52;;;;;;;6.10;2.53;;;11.40;99.90;;;;;;12473695;28;20077;-40
2022/01/02 17:16:56;;;;;;;6.20;2.20;;;11.40;99.90;;;;;;12459835;28;20041;-37
2022/01/02 17:22:58;;;;;;;6.50;2.03;;;11.40;99.90;;;;;;12457110;28;20073;-40
2022/01/02 17:29:00;;;;;;;7.43;2.40;;;11.40;99.90;;;;;;12469843;28;20118;-39
2022/01/02 17:35:04;;;;;;;9.75;2.70;;;11.40;99.90;;;;;;12468850;28;20097;-37
2022/01/02 17:41:06;;;;;;;6.50;2.00;;;11.40;99.90;;;;;;12480450;28;20046;-37
2022/01/02 17:47:08;;;;;;;5.30;2.35;;;11.30;99.90;;;;;;12471143;28;20940;-39
2022/01/02 17:53:10;;;;;;;8.48;2.60;;;11.20;99.90;;;;;;12469508;28;20134;-39
2022/01/02 17:59:12;;;;;;;11.60;2.83;;;11.20;99.90;;;;;;12478156;28;20045;-41
2022/01/02 18:05:14;;;;;;;10.05;2.53;;;11.00;99.90;;;;;;12474437;28;20121;-39
2022/01/02 18:11:16;;;;;;;11.15;2.90;;;11.00;99.90;;;;;;12482926;28;20136;-39
2022/01/02 18:17:19;;;;;;;6.80;3.30;;;10.90;99.90;;;;;;12480652;28;20098;-40
2022/01/02 18:23:21;;;;;;;9.07;3.42;;;10.80;99.90;;;;;;12478727;28;20049;-38
2022/01/02 18:29:23;;;;;;;8.45;3.35;;;10.50;99.90;;;;;;12461698;28;20172;-39
2022/01/02 18:35:26;;;;;;;9.25;3.97;;;10.50;99.90;;;;;;12475894;28;20045;-38
2022/01/02 18:41:28;;;;;;;12.50;4.00;;;10.50;99.90;;;;;;12477500;28;20068;-41
2022/01/02 18:47:30;;;;;;;11.65;3.90;;;10.50;99.90;;;;;;12472578;28;20087;-39
2022/01/02 18:53:32;;;;;;;11.52;3.83;;;10.60;99.90;;;;;;12478272;28;20131;-39
2022/01/02 18:59:34;;;;;;;15.85;5.53;;;10.60;99.90;;;;;;12476691;28;20049;-37
2022/01/02 19:05:37;;;;;;;9.10;4.97;;;10.60;99.90;;;;;;12476523;28;20064;-37
2022/01/02 19:11:39;;;;;;;9.90;4.65;;;10.70;99.90;;;;;;12475573;28;20506;-40
2022/01/02 19:17:43;;;;;;;11.50;4.68;;;10.70;99.90;;;;;;12474962;28;20126;-39
2022/01/02 19:23:53;;;;;;;10.32;3.90;;;10.70;99.90;;;;;;12478127;28;20790;-37
2022/01/02 19:29:55;;;;;;;10.40;3.90;;;10.80;99.90;;;;;;12460703;28;20061;-39
2022/01/02 19:35:58;;;;;;;11.90;4.03;;;10.90;99.90;;;;;;12477757;28;20090;-39
2022/01/02 19:42:00;;;;;;;10.18;3.38;;;10.90;99.90;;;;;;12457378;28;20049;-41
2022/01/02 19:48:02;;;;;;;8.88;3.22;;;10.80;99.90;;;;;;12475121;28;20099;-37
2022/01/02 19:54:04;;;;;;;5.13;2.90;;;10.90;99.90;;;;;;12472639;28;20080;-37
2022/01/02 20:00:10;;;;;;;7.70;3.00;;;10.90;99.90;;;;;;12472097;28;20045;-37
2022/01/02 20:06:12;;;;;;;9.35;2.85;;;10.90;99.90;;;;;;12472956;28;20501;-37
2022/01/02 20:12:14;;;;;;;9.55;3.35;;;11.00;99.90;;;;;;12472532;28;20383;-38
2022/01/02 20:18:16;;;;;;;12.95;3.30;;;11.00;99.90;;;;;;12473565;28;20132;-37
2022/01/02 20:24:18;;;;;;;9.63;2.88;;;10.90;99.90;;;;;;12472203;28;20071;-38
2022/01/02 20:30:20;;;;;;;10.90;3.40;;;10.90;99.90;;;;;;12475725;28;20053;-37
2022/01/02 20:36:22;;;;;;;10.20;3.10;;;10.90;99.90;;;;;;12467433;28;20061;-37
2022/01/02 20:42:24;;;;;;;5.82;3.20;;;10.90;99.90;;;;;;12471322;28;20456;-37
2022/01/02 20:48:26;;;;;;;6.25;2.33;;;10.90;99.90;;;;;;12472202;28;20484;-38
2022/01/02 20:54:28;;;;;;;4.32;1.52;;;10.90;99.90;;;;;;12471049;28;20049;-37
2022/01/02 21:00:32;;;;;;;5.03;1.98;;;10.90;99.90;;;;;;12470252;28;20053;-38
2022/01/02 21:06:36;;;;;;;4.82;1.92;;;10.70;99.90;;;;;;12472543;28;20049;-37
2022/01/02 21:12:38;;;;;;;4.47;1.98;;;10.50;99.90;;;;;;12468663;28;20045;-39
2022/01/02 21:18:40;;;;;;;6.78;2.28;;;10.40;99.90;;;;;;12470658;28;20493;-39
2022/01/02 21:24:43;;;;;;;3.83;1.75;;;10.30;99.90;;;;;;12470502;28;20102;-39
2022/01/02 21:30:45;;;;;;;3.35;1.60;;;10.30;99.90;;;;;;12470517;28;20132;-38
2022/01/02 21:36:47;;;;;;;4.90;2.00;;;10.30;99.90;;;;;;12470863;28;20463;-37
2022/01/02 21:42:49;;;;;;;3.35;1.35;;;10.20;99.90;;;;;;12467584;28;20102;-40
2022/01/02 21:48:52;;;;;;;4.10;1.33;;;10.00;99.90;;;;;;12466804;28;20057;-39
2022/01/02 21:54:54;;;;;;;2.95;1.20;;;9.70;99.90;;;;;;12467696;28;20050;-37
2022/01/02 22:00:58;;;;;;;2.72;0.65;;;9.50;99.90;;;;;;12467582;28;20049;-39
2022/01/02 22:07:01;;;;;;;4.18;0.70;;;9.30;99.90;;;;;;12452202;28;20054;-39
2022/01/02 22:13:04;;;;;;;2.58;0.70;;;9.10;99.90;;;;;;12470433;28;20136;-37
2022/01/02 22:19:06;;;;;;;0.77;0.47;;;8.90;99.90;;;;;;12471154;28;20160;-39
2022/01/02 22:25:17;;;;;;;2.58;0.60;;;8.90;99.90;;;;;;12474257;28;20045;-39
2022/01/02 22:31:21;;;;;;;2.47;0.45;;;8.80;99.90;;;;;;12476307;28;20037;-39
2022/01/02 22:37:24;;;;;;;1.83;0.47;;;8.90;99.90;;;;;;12479571;28;20050;-39
2022/01/02 22:43:26;;;;;;;1.48;0.60;;;8.90;99.90;;;;;;12477730;28;20053;-37
2022/01/02 22:49:29;;;;;;;5.45;0.98;;;8.90;99.90;;;;;;12474434;28;20050;-37
2022/01/02 22:55:35;;;;;;;1.90;0.90;;;8.90;99.90;;;;;;12476325;28;20049;-39
2022/01/02 23:01:37;;;;;;;2.55;0.90;;;8.90;99.90;;;;;;12470952;28;20570;-37
2022/01/02 23:07:40;;;;;;;2.47;1.30;;;8.90;99.90;;;;;;12477678;28;20457;-39
2022/01/02 23:13:45;;;;;;;4.23;1.93;;;9.10;99.90;;;;;;12478664;28;20053;-39
2022/01/02 23:19:50;;;;;;;4.70;2.92;;;9.20;99.90;;;;;;12478052;28;20046;-39
2022/01/02 23:25:54;;;;;;;7.53;2.60;;;9.30;99.90;;;;;;12476130;28;20132;-39
2022/01/02 23:31:56;;;;;;;6.03;2.55;;;9.40;99.90;;;;;;12478026;28;20041;-37
2022/01/02 23:37:59;;;;;;;3.85;1.92;;;9.60;99.90;;;;;;12475802;28;20041;-38
2022/01/02 23:44:03;;;;;;;7.97;2.03;;;9.70;99.90;;;;;;12476612;28;20041;-37
2022/01/02 23:50:11;;;;;;;7.15;1.95;;;9.80;99.90;;;;;;12472000;28;20465;-39
2022/01/02 23:56:16;;;;;;;5.90;1.92;;;9.80;99.90;;;;;;12476242;28;20486;-37
